sensor_id;sensor_type;location;lat;lon;timestamp;P1;durP1;ratioP1;P2;durP2;ratioP2
21206;SDS011;10761;48.532;8.026;2024-01-30T00:01:04;5.30;;;3.60;;
21206;SDS011;10761;48.532;8.026;2024-01-30T00:03:30;8.95;;;3.72;;
21206;SDS011;10761;48.532;8.026;2024-01-30T00:05:56;6.45;;;3.88;;
21206;SDS011;10761;48.532;8.026;2024-01-30T00:08:21;6.75;;;4.43;;
21206;SDS011;10761;48.532;8.026;2024-01-30T00:10:47;5.97;;;3.80;;
21206;SDS011;10761;48.532;8.026;2024-01-30T00:13:12;6.82;;;4.60;;
21206;SDS011;10761;48.532;8.026;2024-01-30T00:15:39;5.10;;;3.83;;
21206;SDS011;10761;48.532;8.026;2024-01-30T00:18:04;6.25;;;4.20;;
21206;SDS011;10761;48.532;8.026;2024-01-30T00:20:30;9.02;;;4.35;;
21206;SDS011;10761;48.532;8.026;2024-01-30T00:22:55;6.13;;;4.15;;
21206;SDS011;10761;48.532;8.026;2024-01-30T00:25:21;8.20;;;4.35;;
21206;SDS011;10761;48.532;8.026;2024-01-30T00:27:47;5.18;;;3.97;;
21206;SDS011;10761;48.532;8.026;2024-01-30T00:30:12;7.47;;;4.30;;
21206;SDS011;10761;48.532;8.026;2024-01-30T00:32:38;7.63;;;4.55;;
21206;SDS011;10761;48.532;8.026;2024-01-30T00:35:04;8.52;;;4.55;;
21206;SDS011;10761;48.532;8.026;2024-01-30T00:37:30;8.07;;;4.78;;
21206;SDS011;10761;48.532;8.026;2024-01-30T00:39:56;8.50;;;4.75;;
21206;SDS011;10761;48.532;8.026;2024-01-30T00:42:22;7.22;;;4.97;;
21206;SDS011;10761;48.532;8.026;2024-01-30T00:44:49;6.65;;;4.70;;
21206;SDS011;10761;48.532;8.026;2024-01-30T00:47:14;6.25;;;4.35;;
21206;SDS011;10761;48.532;8.026;2024-01-30T00:49:40;7.30;;;4.88;;
21206;SDS011;10761;48.532;8.026;2024-01-30T00:52:06;9.52;;;6.22;;
21206;SDS011;10761;48.532;8.026;2024-01-30T00:54:31;8.30;;;5.05;;
21206;SDS011;10761;48.532;8.026;2024-01-30T00:56:57;7.50;;;5.00;;
21206;SDS011;10761;48.532;8.026;2024-01-30T00:59:23;9.07;;;5.20;;
21206;SDS011;10761;48.532;8.026;2024-01-30T01:01:48;6.57;;;4.53;;
21206;SDS011;10761;48.532;8.026;2024-01-30T01:04:14;6.28;;;4.50;;
21206;SDS011;10761;48.532;8.026;2024-01-30T01:06:39;10.98;;;4.95;;
21206;SDS011;10761;48.532;8.026;2024-01-30T01:09:07;7.68;;;4.50;;
21206;SDS011;10761;48.532;8.026;2024-01-30T01:11:33;8.27;;;4.70;;
21206;SDS011;10761;48.532;8.026;2024-01-30T01:13:58;6.57;;;4.65;;
21206;SDS011;10761;48.532;8.026;2024-01-30T01:16:24;5.90;;;4.32;;
21206;SDS011;10761;48.532;8.026;2024-01-30T01:18:49;7.22;;;4.88;;
21206;SDS011;10761;48.532;8.026;2024-01-30T01:21:15;5.72;;;4.60;;
21206;SDS011;10761;48.532;8.026;2024-01-30T01:23:41;8.10;;;4.90;;
21206;SDS011;10761;48.532;8.026;2024-01-30T01:26:07;5.50;;;4.28;;
21206;SDS011;10761;48.532;8.026;2024-01-30T01:28:34;5.97;;;4.70;;
21206;SDS011;10761;48.532;8.026;2024-01-30T01:31:00;7.43;;;5.00;;
21206;SDS011;10761;48.532;8.026;2024-01-30T01:33:33;6.32;;;4.65;;
21206;SDS011;10761;48.532;8.026;2024-01-30T01:36:00;7.63;;;4.75;;
21206;SDS011;10761;48.532;8.026;2024-01-30T01:38:29;6.70;;;4.65;;
21206;SDS011;10761;48.532;8.026;2024-01-30T01:40:55;6.72;;;4.57;;
21206;SDS011;10761;48.532;8.026;2024-01-30T01:43:20;6.43;;;4.28;;
21206;SDS011;10761;48.532;8.026;2024-01-30T01:45:46;6.03;;;4.38;;
21206;SDS011;10761;48.532;8.026;2024-01-30T01:48:12;7.50;;;4.53;;
21206;SDS011;10761;48.532;8.026;2024-01-30T01:50:38;6.65;;;4.20;;
21206;SDS011;10761;48.532;8.026;2024-01-30T01:53:04;6.95;;;4.63;;
21206;SDS011;10761;48.532;8.026;2024-01-30T01:55:33;8.35;;;4.30;;
21206;SDS011;10761;48.532;8.026;2024-01-30T01:57:59;5.70;;;3.88;;
21206;SDS011;10761;48.532;8.026;2024-01-30T02:00:26;6.03;;;4.25;;
21206;SDS011;10761;48.532;8.026;2024-01-30T02:02:52;5.32;;;4.50;;
21206;SDS011;10761;48.532;8.026;2024-01-30T02:05:19;8.48;;;4.18;;
21206;SDS011;10761;48.532;8.026;2024-01-30T02:07:45;6.63;;;4.00;;
21206;SDS011;10761;48.532;8.026;2024-01-30T02:10:11;6.90;;;4.50;;
21206;SDS011;10761;48.532;8.026;2024-01-30T02:12:37;6.05;;;4.30;;
21206;SDS011;10761;48.532;8.026;2024-01-30T02:15:04;10.18;;;4.78;;
21206;SDS011;10761;48.532;8.026;2024-01-30T02:17:30;8.15;;;4.53;;
21206;SDS011;10761;48.532;8.026;2024-01-30T02:19:56;7.13;;;4.60;;
21206;SDS011;10761;48.532;8.026;2024-01-30T02:22:22;8.50;;;4.22;;
21206;SDS011;10761;48.532;8.026;2024-01-30T02:24:48;5.97;;;4.13;;
21206;SDS011;10761;48.532;8.026;2024-01-30T02:27:14;6.22;;;3.95;;
21206;SDS011;10761;48.532;8.026;2024-01-30T02:29:40;6.55;;;4.32;;
21206;SDS011;10761;48.532;8.026;2024-01-30T02:32:05;7.00;;;4.15;;
21206;SDS011;10761;48.532;8.026;2024-01-30T02:34:32;6.88;;;4.28;;
21206;SDS011;10761;48.532;8.026;2024-01-30T02:36:58;6.68;;;4.07;;
21206;SDS011;10761;48.532;8.026;2024-01-30T02:39:23;8.15;;;4.00;;
21206;SDS011;10761;48.532;8.026;2024-01-30T02:41:49;5.72;;;3.90;;
21206;SDS011;10761;48.532;8.026;2024-01-30T02:44:15;6.55;;;4.00;;
21206;SDS011;10761;48.532;8.026;2024-01-30T02:46:40;7.28;;;4.10;;
21206;SDS011;10761;48.532;8.026;2024-01-30T02:49:06;5.80;;;4.00;;
21206;SDS011;10761;48.532;8.026;2024-01-30T02:51:31;4.50;;;3.47;;
21206;SDS011;10761;48.532;8.026;2024-01-30T02:53:57;9.55;;;4.63;;
21206;SDS011;10761;48.532;8.026;2024-01-30T02:56:23;5.22;;;3.88;;
21206;SDS011;10761;48.532;8.026;2024-01-30T02:58:48;5.97;;;4.22;;
21206;SDS011;10761;48.532;8.026;2024-01-30T03:01:14;6.63;;;4.43;;
21206;SDS011;10761;48.532;8.026;2024-01-30T03:03:39;7.00;;;3.67;;
21206;SDS011;10761;48.532;8.026;2024-01-30T03:06:05;7.43;;;4.05;;
21206;SDS011;10761;48.532;8.026;2024-01-30T03:08:32;5.97;;;3.83;;
21206;SDS011;10761;48.532;8.026;2024-01-30T03:10:57;5.97;;;3.90;;
21206;SDS011;10761;48.532;8.026;2024-01-30T03:13:23;6.82;;;4.10;;
21206;SDS011;10761;48.532;8.026;2024-01-30T03:15:50;6.65;;;4.03;;
21206;SDS011;10761;48.532;8.026;2024-01-30T03:18:15;7.50;;;3.83;;
21206;SDS011;10761;48.532;8.026;2024-01-30T03:20:41;8.20;;;4.30;;
21206;SDS011;10761;48.532;8.026;2024-01-30T03:23:06;7.18;;;3.97;;
21206;SDS011;10761;48.532;8.026;2024-01-30T03:25:32;4.93;;;3.78;;
21206;SDS011;10761;48.532;8.026;2024-01-30T03:27:58;6.18;;;3.65;;
21206;SDS011;10761;48.532;8.026;2024-01-30T03:30:23;6.03;;;4.20;;
21206;SDS011;10761;48.532;8.026;2024-01-30T03:32:49;6.15;;;3.95;;
21206;SDS011;10761;48.532;8.026;2024-01-30T03:35:15;5.93;;;3.78;;
21206;SDS011;10761;48.532;8.026;2024-01-30T03:37:40;9.85;;;4.18;;
21206;SDS011;10761;48.532;8.026;2024-01-30T03:40:06;7.60;;;3.70;;
21206;SDS011;10761;48.532;8.026;2024-01-30T03:42:32;8.70;;;4.30;;
21206;SDS011;10761;48.532;8.026;2024-01-30T03:44:58;5.25;;;3.78;;
21206;SDS011;10761;48.532;8.026;2024-01-30T03:47:23;6.55;;;3.80;;
21206;SDS011;10761;48.532;8.026;2024-01-30T03:49:49;4.82;;;3.60;;
21206;SDS011;10761;48.532;8.026;2024-01-30T03:52:14;5.88;;;4.15;;
21206;SDS011;10761;48.532;8.026;2024-01-30T03:54:40;5.82;;;4.20;;
21206;SDS011;10761;48.532;8.026;2024-01-30T03:57:06;7.72;;;4.00;;
21206;SDS011;10761;48.532;8.026;2024-01-30T03:59:31;4.80;;;3.63;;
21206;SDS011;10761;48.532;8.026;2024-01-30T04:01:57;5.03;;;3.97;;
21206;SDS011;10761;48.532;8.026;2024-01-30T04:04:22;8.40;;;3.92;;
21206;SDS011;10761;48.532;8.026;2024-01-30T04:06:48;5.57;;;3.60;;
21206;SDS011;10761;48.532;8.026;2024-01-30T04:09:14;5.57;;;4.22;;
21206;SDS011;10761;48.532;8.026;2024-01-30T04:11:40;5.28;;;3.88;;
21206;SDS011;10761;48.532;8.026;2024-01-30T04:14:06;6.18;;;3.80;;
21206;SDS011;10761;48.532;8.026;2024-01-30T04:16:32;11.93;;;7.63;;
21206;SDS011;10761;48.532;8.026;2024-01-30T04:18:58;4.88;;;3.80;;
21206;SDS011;10761;48.532;8.026;2024-01-30T04:21:23;11.15;;;5.20;;
21206;SDS011;10761;48.532;8.026;2024-01-30T04:23:50;7.97;;;3.80;;
21206;SDS011;10761;48.532;8.026;2024-01-30T04:26:16;6.40;;;3.55;;
21206;SDS011;10761;48.532;8.026;2024-01-30T04:28:43;5.05;;;3.50;;
21206;SDS011;10761;48.532;8.026;2024-01-30T04:31:10;5.95;;;3.80;;
21206;SDS011;10761;48.532;8.026;2024-01-30T04:33:36;5.00;;;3.90;;
21206;SDS011;10761;48.532;8.026;2024-01-30T04:36:01;6.13;;;3.53;;
21206;SDS011;10761;48.532;8.026;2024-01-30T04:38:28;6.30;;;3.40;;
21206;SDS011;10761;48.532;8.026;2024-01-30T04:40:53;3.78;;;3.33;;
21206;SDS011;10761;48.532;8.026;2024-01-30T04:43:19;6.18;;;3.60;;
21206;SDS011;10761;48.532;8.026;2024-01-30T04:45:44;4.78;;;3.10;;
21206;SDS011;10761;48.532;8.026;2024-01-30T04:48:10;5.15;;;3.00;;
21206;SDS011;10761;48.532;8.026;2024-01-30T04:50:35;4.60;;;3.25;;
21206;SDS011;10761;48.532;8.026;2024-01-30T04:53:01;6.90;;;2.80;;
21206;SDS011;10761;48.532;8.026;2024-01-30T04:55:27;5.95;;;3.30;;
21206;SDS011;10761;48.532;8.026;2024-01-30T04:57:52;4.93;;;3.45;;
21206;SDS011;10761;48.532;8.026;2024-01-30T05:00:18;4.68;;;2.75;;
21206;SDS011;10761;48.532;8.026;2024-01-30T05:02:44;7.00;;;3.53;;
21206;SDS011;10761;48.532;8.026;2024-01-30T05:05:09;3.90;;;2.97;;
21206;SDS011;10761;48.532;8.026;2024-01-30T05:07:36;3.33;;;2.72;;
21206;SDS011;10761;48.532;8.026;2024-01-30T05:10:01;3.30;;;2.72;;
21206;SDS011;10761;48.532;8.026;2024-01-30T05:12:28;6.13;;;2.80;;
21206;SDS011;10761;48.532;8.026;2024-01-30T05:14:53;5.15;;;2.70;;
21206;SDS011;10761;48.532;8.026;2024-01-30T05:17:19;3.58;;;2.47;;
21206;SDS011;10761;48.532;8.026;2024-01-30T05:19:45;4.50;;;2.60;;
21206;SDS011;10761;48.532;8.026;2024-01-30T05:22:10;3.80;;;2.42;;
21206;SDS011;10761;48.532;8.026;2024-01-30T05:24:40;3.63;;;2.30;;
21206;SDS011;10761;48.532;8.026;2024-01-30T05:27:08;3.25;;;2.40;;
21206;SDS011;10761;48.532;8.026;2024-01-30T05:29:34;5.20;;;2.67;;
21206;SDS011;10761;48.532;8.026;2024-01-30T05:31:59;4.60;;;2.55;;
21206;SDS011;10761;48.532;8.026;2024-01-30T05:34:25;3.78;;;2.25;;
21206;SDS011;10761;48.532;8.026;2024-01-30T05:36:51;6.00;;;2.75;;
21206;SDS011;10761;48.532;8.026;2024-01-30T05:39:16;3.78;;;2.40;;
21206;SDS011;10761;48.532;8.026;2024-01-30T05:41:42;4.60;;;2.60;;
21206;SDS011;10761;48.532;8.026;2024-01-30T05:44:07;4.95;;;2.80;;
21206;SDS011;10761;48.532;8.026;2024-01-30T05:46:33;5.53;;;2.78;;
21206;SDS011;10761;48.532;8.026;2024-01-30T05:49:00;2.83;;;2.10;;
21206;SDS011;10761;48.532;8.026;2024-01-30T05:51:25;4.75;;;2.20;;
21206;SDS011;10761;48.532;8.026;2024-01-30T05:53:51;4.97;;;2.50;;
21206;SDS011;10761;48.532;8.026;2024-01-30T05:56:17;4.05;;;2.25;;
21206;SDS011;10761;48.532;8.026;2024-01-30T05:58:42;3.45;;;1.90;;
21206;SDS011;10761;48.532;8.026;2024-01-30T06:01:08;3.38;;;2.17;;
21206;SDS011;10761;48.532;8.026;2024-01-30T06:03:34;3.72;;;2.13;;
21206;SDS011;10761;48.532;8.026;2024-01-30T06:06:00;5.30;;;3.45;;
21206;SDS011;10761;48.532;8.026;2024-01-30T06:08:25;3.60;;;2.25;;
21206;SDS011;10761;48.532;8.026;2024-01-30T06:10:51;4.78;;;2.35;;
21206;SDS011;10761;48.532;8.026;2024-01-30T06:13:17;2.60;;;2.05;;
21206;SDS011;10761;48.532;8.026;2024-01-30T06:15:43;3.30;;;2.20;;
21206;SDS011;10761;48.532;8.026;2024-01-30T06:18:08;2.58;;;1.92;;
21206;SDS011;10761;48.532;8.026;2024-01-30T06:20:34;3.30;;;2.25;;
21206;SDS011;10761;48.532;8.026;2024-01-30T06:22:59;3.10;;;1.98;;
21206;SDS011;10761;48.532;8.026;2024-01-30T06:25:26;3.83;;;2.35;;
21206;SDS011;10761;48.532;8.026;2024-01-30T06:27:51;6.00;;;2.38;;
21206;SDS011;10761;48.532;8.026;2024-01-30T06:30:17;3.20;;;1.98;;
21206;SDS011;10761;48.532;8.026;2024-01-30T06:32:43;4.15;;;2.50;;
21206;SDS011;10761;48.532;8.026;2024-01-30T06:35:09;2.70;;;2.10;;
21206;SDS011;10761;48.532;8.026;2024-01-30T06:37:35;3.30;;;2.20;;
21206;SDS011;10761;48.532;8.026;2024-01-30T06:40:01;3.50;;;2.10;;
21206;SDS011;10761;48.532;8.026;2024-01-30T06:42:27;4.35;;;2.10;;
21206;SDS011;10761;48.532;8.026;2024-01-30T06:44:53;3.67;;;2.20;;
21206;SDS011;10761;48.532;8.026;2024-01-30T06:47:18;6.25;;;4.03;;
21206;SDS011;10761;48.532;8.026;2024-01-30T06:49:44;5.45;;;3.03;;
21206;SDS011;10761;48.532;8.026;2024-01-30T06:52:10;5.15;;;3.47;;
21206;SDS011;10761;48.532;8.026;2024-01-30T06:54:36;6.13;;;3.47;;
21206;SDS011;10761;48.532;8.026;2024-01-30T06:57:01;4.53;;;2.67;;
21206;SDS011;10761;48.532;8.026;2024-01-30T06:59:27;4.18;;;2.47;;
21206;SDS011;10761;48.532;8.026;2024-01-30T07:01:52;3.50;;;2.75;;
21206;SDS011;10761;48.532;8.026;2024-01-30T07:04:18;3.53;;;2.25;;
21206;SDS011;10761;48.532;8.026;2024-01-30T07:06:44;2.85;;;2.08;;
21206;SDS011;10761;48.532;8.026;2024-01-30T07:09:10;4.53;;;2.20;;
21206;SDS011;10761;48.532;8.026;2024-01-30T07:11:35;3.03;;;1.98;;
21206;SDS011;10761;48.532;8.026;2024-01-30T07:14:01;5.68;;;2.70;;
21206;SDS011;10761;48.532;8.026;2024-01-30T07:16:29;3.60;;;2.90;;
21206;SDS011;10761;48.532;8.026;2024-01-30T07:18:55;4.60;;;2.80;;
21206;SDS011;10761;48.532;8.026;2024-01-30T07:21:21;3.50;;;2.88;;
21206;SDS011;10761;48.532;8.026;2024-01-30T07:23:52;5.45;;;4.00;;
21206;SDS011;10761;48.532;8.026;2024-01-30T07:26:18;6.82;;;4.80;;
21206;SDS011;10761;48.532;8.026;2024-01-30T07:28:44;7.13;;;4.55;;
21206;SDS011;10761;48.532;8.026;2024-01-30T07:31:10;9.05;;;4.75;;
21206;SDS011;10761;48.532;8.026;2024-01-30T07:33:35;6.57;;;4.88;;
21206;SDS011;10761;48.532;8.026;2024-01-30T07:36:01;7.57;;;5.10;;
21206;SDS011;10761;48.532;8.026;2024-01-30T07:38:26;8.20;;;4.60;;
21206;SDS011;10761;48.532;8.026;2024-01-30T07:40:52;7.28;;;4.50;;
21206;SDS011;10761;48.532;8.026;2024-01-30T07:43:18;25.73;;;15.60;;
21206;SDS011;10761;48.532;8.026;2024-01-30T07:45:45;13.35;;;9.23;;
21206;SDS011;10761;48.532;8.026;2024-01-30T07:48:10;17.20;;;11.90;;
21206;SDS011;10761;48.532;8.026;2024-01-30T07:50:36;21.85;;;14.55;;
21206;SDS011;10761;48.532;8.026;2024-01-30T07:53:02;18.05;;;13.13;;
21206;SDS011;10761;48.532;8.026;2024-01-30T07:55:27;21.90;;;14.57;;
21206;SDS011;10761;48.532;8.026;2024-01-30T07:57:54;17.02;;;10.80;;
21206;SDS011;10761;48.532;8.026;2024-01-30T08:00:20;12.07;;;6.72;;
21206;SDS011;10761;48.532;8.026;2024-01-30T08:02:46;10.13;;;5.95;;
21206;SDS011;10761;48.532;8.026;2024-01-30T08:05:12;6.82;;;4.70;;
21206;SDS011;10761;48.532;8.026;2024-01-30T08:07:40;7.38;;;4.35;;
21206;SDS011;10761;48.532;8.026;2024-01-30T08:10:08;8.38;;;5.45;;
21206;SDS011;10761;48.532;8.026;2024-01-30T08:12:36;6.85;;;5.13;;
21206;SDS011;10761;48.532;8.026;2024-01-30T08:15:02;8.48;;;6.18;;
21206;SDS011;10761;48.532;8.026;2024-01-30T08:17:28;12.30;;;6.25;;
21206;SDS011;10761;48.532;8.026;2024-01-30T08:19:53;10.65;;;7.18;;
21206;SDS011;10761;48.532;8.026;2024-01-30T08:22:19;12.50;;;6.93;;
21206;SDS011;10761;48.532;8.026;2024-01-30T08:24:44;19.85;;;10.40;;
21206;SDS011;10761;48.532;8.026;2024-01-30T08:27:10;14.52;;;9.05;;
21206;SDS011;10761;48.532;8.026;2024-01-30T08:29:37;13.65;;;7.35;;
21206;SDS011;10761;48.532;8.026;2024-01-30T08:32:03;9.90;;;7.10;;
21206;SDS011;10761;48.532;8.026;2024-01-30T08:34:30;11.95;;;7.60;;
21206;SDS011;10761;48.532;8.026;2024-01-30T08:36:55;9.70;;;6.53;;
21206;SDS011;10761;48.532;8.026;2024-01-30T08:39:21;11.07;;;7.65;;
21206;SDS011;10761;48.532;8.026;2024-01-30T08:41:47;12.02;;;7.75;;
21206;SDS011;10761;48.532;8.026;2024-01-30T08:44:12;10.30;;;7.28;;
21206;SDS011;10761;48.532;8.026;2024-01-30T08:46:38;10.75;;;7.38;;
21206;SDS011;10761;48.532;8.026;2024-01-30T08:49:03;8.23;;;6.20;;
21206;SDS011;10761;48.532;8.026;2024-01-30T08:51:29;11.45;;;7.20;;
21206;SDS011;10761;48.532;8.026;2024-01-30T08:53:55;10.38;;;7.57;;
21206;SDS011;10761;48.532;8.026;2024-01-30T08:56:21;10.02;;;8.15;;
21206;SDS011;10761;48.532;8.026;2024-01-30T08:58:47;11.10;;;7.38;;
21206;SDS011;10761;48.532;8.026;2024-01-30T09:01:12;14.02;;;7.03;;
21206;SDS011;10761;48.532;8.026;2024-01-30T09:03:38;10.70;;;7.18;;
21206;SDS011;10761;48.532;8.026;2024-01-30T09:06:15;12.43;;;7.22;;
21206;SDS011;10761;48.532;8.026;2024-01-30T09:08:40;9.80;;;6.63;;
21206;SDS011;10761;48.532;8.026;2024-01-30T09:11:09;13.00;;;6.90;;
21206;SDS011;10761;48.532;8.026;2024-01-30T09:13:36;9.15;;;5.90;;
21206;SDS011;10761;48.532;8.026;2024-01-30T09:16:02;8.15;;;5.45;;
21206;SDS011;10761;48.532;8.026;2024-01-30T09:18:29;12.45;;;5.60;;
21206;SDS011;10761;48.532;8.026;2024-01-30T09:20:54;7.65;;;5.70;;
21206;SDS011;10761;48.532;8.026;2024-01-30T09:23:20;7.85;;;4.72;;
21206;SDS011;10761;48.532;8.026;2024-01-30T09:25:45;10.05;;;5.53;;
21206;SDS011;10761;48.532;8.026;2024-01-30T09:28:11;8.40;;;6.18;;
21206;SDS011;10761;48.532;8.026;2024-01-30T09:30:36;9.30;;;7.22;;
21206;SDS011;10761;48.532;8.026;2024-01-30T09:33:02;9.30;;;6.85;;
21206;SDS011;10761;48.532;8.026;2024-01-30T09:35:28;8.13;;;5.25;;
21206;SDS011;10761;48.532;8.026;2024-01-30T09:37:54;7.10;;;5.40;;
21206;SDS011;10761;48.532;8.026;2024-01-30T09:40:20;8.70;;;6.05;;
21206;SDS011;10761;48.532;8.026;2024-01-30T09:42:46;7.80;;;5.93;;
21206;SDS011;10761;48.532;8.026;2024-01-30T09:45:15;9.02;;;6.03;;
21206;SDS011;10761;48.532;8.026;2024-01-30T09:47:43;12.45;;;7.10;;
21206;SDS011;10761;48.532;8.026;2024-01-30T09:50:10;9.60;;;6.78;;
21206;SDS011;10761;48.532;8.026;2024-01-30T09:52:37;8.90;;;6.72;;
21206;SDS011;10761;48.532;8.026;2024-01-30T09:55:03;13.73;;;8.35;;
21206;SDS011;10761;48.532;8.026;2024-01-30T09:57:29;13.15;;;8.57;;
21206;SDS011;10761;48.532;8.026;2024-01-30T09:59:55;13.05;;;8.77;;
21206;SDS011;10761;48.532;8.026;2024-01-30T10:02:21;11.52;;;7.55;;
21206;SDS011;10761;48.532;8.026;2024-01-30T10:04:47;16.30;;;9.50;;
21206;SDS011;10761;48.532;8.026;2024-01-30T10:07:14;13.10;;;8.38;;
21206;SDS011;10761;48.532;8.026;2024-01-30T10:09:40;22.55;;;14.60;;
21206;SDS011;10761;48.532;8.026;2024-01-30T10:12:06;17.92;;;10.05;;
21206;SDS011;10761;48.532;8.026;2024-01-30T10:14:32;25.58;;;16.20;;
21206;SDS011;10761;48.532;8.026;2024-01-30T10:16:58;36.75;;;20.80;;
21206;SDS011;10761;48.532;8.026;2024-01-30T10:19:24;24.52;;;14.63;;
21206;SDS011;10761;48.532;8.026;2024-01-30T10:21:50;19.38;;;13.73;;
21206;SDS011;10761;48.532;8.026;2024-01-30T10:24:15;18.58;;;12.02;;
21206;SDS011;10761;48.532;8.026;2024-01-30T10:26:43;19.05;;;12.20;;
21206;SDS011;10761;48.532;8.026;2024-01-30T10:29:09;11.55;;;8.35;;
21206;SDS011;10761;48.532;8.026;2024-01-30T10:31:34;12.95;;;8.82;;
21206;SDS011;10761;48.532;8.026;2024-01-30T10:34:00;12.35;;;7.60;;
21206;SDS011;10761;48.532;8.026;2024-01-30T10:36:28;14.05;;;6.97;;
21206;SDS011;10761;48.532;8.026;2024-01-30T10:38:55;25.77;;;17.52;;
21206;SDS011;10761;48.532;8.026;2024-01-30T10:41:26;40.20;;;24.23;;
21206;SDS011;10761;48.532;8.026;2024-01-30T10:44:02;31.48;;;20.02;;
21206;SDS011;10761;48.532;8.026;2024-01-30T10:46:33;18.50;;;10.82;;
21206;SDS011;10761;48.532;8.026;2024-01-30T10:49:00;21.15;;;11.50;;
21206;SDS011;10761;48.532;8.026;2024-01-30T10:51:26;21.40;;;11.30;;
21206;SDS011;10761;48.532;8.026;2024-01-30T10:53:53;13.63;;;8.30;;
21206;SDS011;10761;48.532;8.026;2024-01-30T10:56:22;11.70;;;6.78;;
21206;SDS011;10761;48.532;8.026;2024-01-30T10:58:51;22.45;;;15.23;;
21206;SDS011;10761;48.532;8.026;2024-01-30T11:01:18;10.40;;;7.78;;
21206;SDS011;10761;48.532;8.026;2024-01-30T11:03:48;12.55;;;7.53;;
21206;SDS011;10761;48.532;8.026;2024-01-30T11:06:17;10.38;;;6.28;;
21206;SDS011;10761;48.532;8.026;2024-01-30T11:08:44;10.57;;;6.85;;
21206;SDS011;10761;48.532;8.026;2024-01-30T11:11:25;11.43;;;6.38;;
21206;SDS011;10761;48.532;8.026;2024-01-30T11:13:50;9.07;;;5.97;;
21206;SDS011;10761;48.532;8.026;2024-01-30T11:16:16;8.73;;;4.95;;
21206;SDS011;10761;48.532;8.026;2024-01-30T11:18:42;7.82;;;5.38;;
21206;SDS011;10761;48.532;8.026;2024-01-30T11:21:07;9.77;;;5.65;;
21206;SDS011;10761;48.532;8.026;2024-01-30T11:23:33;7.05;;;5.35;;
21206;SDS011;10761;48.532;8.026;2024-01-30T11:26:00;6.40;;;5.35;;
21206;SDS011;10761;48.532;8.026;2024-01-30T11:28:25;6.97;;;5.32;;
21206;SDS011;10761;48.532;8.026;2024-01-30T11:31:06;8.98;;;5.50;;
21206;SDS011;10761;48.532;8.026;2024-01-30T11:33:32;7.10;;;5.55;;
21206;SDS011;10761;48.532;8.026;2024-01-30T11:35:59;7.57;;;5.85;;
21206;SDS011;10761;48.532;8.026;2024-01-30T11:38:26;11.85;;;6.32;;
21206;SDS011;10761;48.532;8.026;2024-01-30T11:40:52;9.23;;;6.50;;
21206;SDS011;10761;48.532;8.026;2024-01-30T11:43:22;11.32;;;6.13;;
21206;SDS011;10761;48.532;8.026;2024-01-30T11:45:48;13.75;;;7.10;;
21206;SDS011;10761;48.532;8.026;2024-01-30T11:48:14;12.07;;;6.60;;
21206;SDS011;10761;48.532;8.026;2024-01-30T11:50:40;11.13;;;6.10;;
21206;SDS011;10761;48.532;8.026;2024-01-30T11:53:06;7.05;;;5.53;;
21206;SDS011;10761;48.532;8.026;2024-01-30T11:55:32;9.20;;;5.43;;
21206;SDS011;10761;48.532;8.026;2024-01-30T11:57:58;11.30;;;6.20;;
21206;SDS011;10761;48.532;8.026;2024-01-30T12:00:24;6.25;;;5.07;;
21206;SDS011;10761;48.532;8.026;2024-01-30T12:02:50;7.53;;;4.97;;
21206;SDS011;10761;48.532;8.026;2024-01-30T12:05:20;9.43;;;5.25;;
21206;SDS011;10761;48.532;8.026;2024-01-30T12:07:50;7.70;;;4.65;;
21206;SDS011;10761;48.532;8.026;2024-01-30T12:10:15;7.18;;;5.07;;
21206;SDS011;10761;48.532;8.026;2024-01-30T12:12:43;7.30;;;4.85;;
21206;SDS011;10761;48.532;8.026;2024-01-30T12:15:13;6.18;;;4.82;;
21206;SDS011;10761;48.532;8.026;2024-01-30T12:17:39;6.63;;;4.57;;
21206;SDS011;10761;48.532;8.026;2024-01-30T12:20:12;6.57;;;4.80;;
21206;SDS011;10761;48.532;8.026;2024-01-30T12:22:40;9.68;;;4.45;;
21206;SDS011;10761;48.532;8.026;2024-01-30T12:25:10;5.32;;;4.22;;
21206;SDS011;10761;48.532;8.026;2024-01-30T12:27:38;8.33;;;3.90;;
21206;SDS011;10761;48.532;8.026;2024-01-30T12:30:08;6.32;;;4.03;;
21206;SDS011;10761;48.532;8.026;2024-01-30T12:32:35;6.88;;;3.80;;
21206;SDS011;10761;48.532;8.026;2024-01-30T12:35:01;8.75;;;3.65;;
21206;SDS011;10761;48.532;8.026;2024-01-30T12:37:27;3.65;;;3.10;;
21206;SDS011;10761;48.532;8.026;2024-01-30T12:39:54;7.68;;;4.25;;
21206;SDS011;10761;48.532;8.026;2024-01-30T12:42:20;5.78;;;3.80;;
21206;SDS011;10761;48.532;8.026;2024-01-30T12:44:49;8.55;;;3.50;;
21206;SDS011;10761;48.532;8.026;2024-01-30T12:47:15;6.25;;;3.35;;
21206;SDS011;10761;48.532;8.026;2024-01-30T12:49:42;5.32;;;2.97;;
21206;SDS011;10761;48.532;8.026;2024-01-30T12:52:11;5.38;;;3.42;;
21206;SDS011;10761;48.532;8.026;2024-01-30T12:54:38;5.15;;;3.15;;
21206;SDS011;10761;48.532;8.026;2024-01-30T12:57:04;5.45;;;2.97;;
21206;SDS011;10761;48.532;8.026;2024-01-30T12:59:30;5.18;;;3.25;;
21206;SDS011;10761;48.532;8.026;2024-01-30T13:01:56;6.55;;;3.75;;
21206;SDS011;10761;48.532;8.026;2024-01-30T13:04:22;5.57;;;3.50;;
21206;SDS011;10761;48.532;8.026;2024-01-30T13:06:48;6.32;;;3.38;;
21206;SDS011;10761;48.532;8.026;2024-01-30T13:09:14;4.55;;;3.30;;
21206;SDS011;10761;48.532;8.026;2024-01-30T13:11:40;6.32;;;3.47;;
21206;SDS011;10761;48.532;8.026;2024-01-30T13:14:05;6.32;;;3.85;;
21206;SDS011;10761;48.532;8.026;2024-01-30T13:16:31;5.30;;;3.70;;
21206;SDS011;10761;48.532;8.026;2024-01-30T13:18:56;5.20;;;3.40;;
21206;SDS011;10761;48.532;8.026;2024-01-30T13:21:22;5.75;;;3.80;;
21206;SDS011;10761;48.532;8.026;2024-01-30T13:23:47;5.32;;;3.20;;
21206;SDS011;10761;48.532;8.026;2024-01-30T13:26:18;6.25;;;3.90;;
21206;SDS011;10761;48.532;8.026;2024-01-30T13:28:43;6.28;;;3.38;;
21206;SDS011;10761;48.532;8.026;2024-01-30T13:31:09;5.38;;;3.10;;
21206;SDS011;10761;48.532;8.026;2024-01-30T13:33:34;5.53;;;4.22;;
21206;SDS011;10761;48.532;8.026;2024-01-30T13:36:00;5.05;;;3.83;;
21206;SDS011;10761;48.532;8.026;2024-01-30T13:38:26;5.32;;;3.50;;
21206;SDS011;10761;48.532;8.026;2024-01-30T13:40:52;4.95;;;3.28;;
21206;SDS011;10761;48.532;8.026;2024-01-30T13:43:17;5.88;;;3.55;;
21206;SDS011;10761;48.532;8.026;2024-01-30T13:45:43;4.70;;;3.40;;
21206;SDS011;10761;48.532;8.026;2024-01-30T13:48:09;4.25;;;3.13;;
21206;SDS011;10761;48.532;8.026;2024-01-30T13:50:34;6.63;;;3.40;;
21206;SDS011;10761;48.532;8.026;2024-01-30T13:53:00;4.07;;;3.10;;
21206;SDS011;10761;48.532;8.026;2024-01-30T13:55:26;4.47;;;3.45;;
21206;SDS011;10761;48.532;8.026;2024-01-30T13:57:52;4.45;;;3.22;;
21206;SDS011;10761;48.532;8.026;2024-01-30T14:00:18;6.50;;;3.63;;
21206;SDS011;10761;48.532;8.026;2024-01-30T14:02:43;8.32;;;3.30;;
21206;SDS011;10761;48.532;8.026;2024-01-30T14:05:09;6.68;;;3.58;;
21206;SDS011;10761;48.532;8.026;2024-01-30T14:07:35;4.55;;;3.00;;
21206;SDS011;10761;48.532;8.026;2024-01-30T14:10:02;6.22;;;4.07;;
21206;SDS011;10761;48.532;8.026;2024-01-30T14:12:28;6.05;;;3.38;;
21206;SDS011;10761;48.532;8.026;2024-01-30T14:14:55;5.30;;;3.47;;
21206;SDS011;10761;48.532;8.026;2024-01-30T14:17:20;6.18;;;3.80;;
21206;SDS011;10761;48.532;8.026;2024-01-30T14:19:46;6.70;;;3.78;;
21206;SDS011;10761;48.532;8.026;2024-01-30T14:22:12;6.38;;;3.90;;
21206;SDS011;10761;48.532;8.026;2024-01-30T14:24:37;6.50;;;3.90;;
21206;SDS011;10761;48.532;8.026;2024-01-30T14:27:03;7.00;;;4.45;;
21206;SDS011;10761;48.532;8.026;2024-01-30T14:29:29;8.18;;;4.38;;
21206;SDS011;10761;48.532;8.026;2024-01-30T14:31:54;4.70;;;3.67;;
21206;SDS011;10761;48.532;8.026;2024-01-30T14:34:21;6.03;;;3.80;;
21206;SDS011;10761;48.532;8.026;2024-01-30T14:36:46;5.80;;;3.50;;